Piedmont, Quebec

2:50 AM EDT on September 27, 2016 (GMT -0400)
Saint-Sauveur, QUEBEC, CANADA | | Change Station

Elev 1107 ft 45.87 °N, 74.17 °W | Updated 9 minutes ago

Light Rain
Light Rain Mist
50.1 °F
Feels Like 50.1 °F
N
0.0
Wind Variable Wind from South
Gusts 0.0 mph

Today
High -- | Low -- °F
--% Chance of Precip.
Yesterday
High -- | Low -- °F
Precip. -- in
Pressure 29.83 in
Visibility 3.0 miles
Clouds Mostly Cloudy 400 ft
Overcast 1200 ft
Dew Point 49 °F
Humidity 97%
Rainfall 0.05 in
Snow Depth Not available.
6:50 AM 6:43 PM
Waning Crescent, 13% visible
SPECI CYMX 270643Z 03003KT 3SM -RA BR BKN004 OVC012 11/11 A2982 RMK FG3SF2SC3 VIS VRB 2-4 SLP100
Pressure 29.83 in
Visibility 3.0 miles
Clouds Mostly Cloudy 400 ft
Overcast 1200 ft
Dew Point 49 °F
Humidity 97%
Rainfall 0.05 in
Snow Depth Not available.
6:50 AM 6:43 PM
Waning Crescent, 13% visible
SPECI CYMX 270643Z 03003KT 3SM -RA BR BKN004 OVC012 11/11 A2982 RMK FG3SF2SC3 VIS VRB 2-4 SLP100

10-Day Weather Forecast

Almanac

Astronomy

Sep. 27, 2016 Rise Set
Actual Time
Civil Twilight
Nautical Twilight
Astronomical Twilight
Moon
Length of Visible Light
Length of Day
Tomorrow will be .
, % of the Moon is Illuminated

Today's Extremes

Country Highs Country Lows

Community

WunderPhotos

Upload Photos

1,942,040 photos uploaded!

WunderBlog® & News

Nearby

Air Quality

  Air Quality AQ Index Pollutant
Not available.

Snow Depth

Station Depth Elevation

Earthquake Activity

City Distance Mag. Time & Date
Minimum magnitude displayed is 2.5.

Coastal Water Temperatures

Place Temperature

Stations

Nearby Weather Stations

Station Location Temp. Windchill Dew Point Humidity Wind Precip. Elev Updated Type
                   

Watches & Warnings

There are currently no watches in effect.